Time;durP1;ratioP1;P1;durP2;ratioP2;P2;SDS_P1;SDS_P2;PMS_P1;PMS_P2;Temp;Humidity;BMP_temperature;BMP_pressure;BME280_temperature;BME280_humidity;BME280_pressure;Samples;Min_cycle;Max_cycle;Signal;HPM_P1;HPM_P2
2022/04/05 00:02:06;;;;;;;;;;;;;;;6.86;100.00;100567.31;5046460;28;20470;-74
2022/04/05 00:04:32;;;;;;;;;;;;;;;6.87;100.00;100581.22;5047794;28;19927;-74
2022/04/05 00:06:58;;;;;;;;;;;;;;;6.88;100.00;100580.31;5047295;28;19921;-73
2022/04/05 00:09:23;;;;;;;;;;;;;;;6.86;100.00;100579.53;5062259;28;19935;-73
2022/04/05 00:11:48;;;;;;;;;;;;;;;6.85;100.00;100585.66;5047628;28;19964;-74
2022/04/05 00:14:14;;;;;;;;;;;;;;;6.82;100.00;100584.00;5046110;28;20393;-73
2022/04/05 00:16:39;;;;;;;;;;;;;;;6.79;100.00;100589.34;5047412;28;20019;-74
2022/04/05 00:19:04;;;;;;;;;;;;;;;6.76;100.00;100582.47;5045251;28;19928;-73
2022/04/05 00:21:30;;;;;;;;;;;;;;;6.80;100.00;100581.44;5047604;28;19924;-74
2022/04/05 00:23:55;;;;;;;;;;;;;;;6.83;100.00;100583.09;5046494;28;20015;-73
2022/04/05 00:26:20;;;;;;;;;;;;;;;6.86;100.00;100576.91;5044814;28;20393;-72
2022/04/05 00:28:46;;;;;;;;;;;;;;;6.89;100.00;100580.25;5045920;28;19921;-73
2022/04/05 00:31:11;;;;;;;;;;;;;;;6.87;100.00;100574.22;5044806;28;19921;-72
2022/04/05 00:33:36;;;;;;;;;;;;;;;6.85;100.00;100586.50;5046482;28;19916;-73
2022/04/05 00:36:01;;;;;;;;;;;;;;;6.79;100.00;100579.72;5046061;28;20278;-73
2022/04/05 00:38:27;;;;;;;;;;;;;;;6.82;100.00;100581.41;5046462;28;19921;-75
2022/04/05 00:40:52;;;;;;;;;;;;;;;6.83;100.00;100575.28;5046370;28;19920;-74
2022/04/05 00:43:17;;;;;;;;;;;;;;;6.84;100.00;100578.72;5044578;28;19916;-74
2022/04/05 00:45:43;;;;;;;;;;;;;;;6.84;100.00;100576.94;5044624;28;20349;-74
2022/04/05 00:48:08;;;;;;;;;;;;;;;6.86;100.00;100564.69;5045484;28;19921;-74
2022/04/05 00:50:36;;;;;;;;;;;;;;;6.84;100.00;100550.00;5049098;28;19920;-73
2022/04/05 00:53:03;;;;;;;;;;;;;;;6.79;100.00;100566.66;5044180;28;19974;-74
2022/04/05 00:55:30;;;;;;;;;;;;;;;6.81;100.00;100556.19;5049213;28;19956;-74
2022/04/05 00:57:57;;;;;;;;;;;;;;;6.76;100.00;100561.56;5053975;28;20023;-74
2022/04/05 01:00:22;;;;;;;;;;;;;;;6.81;100.00;100564.03;5050108;28;19974;-74
2022/04/05 01:02:50;;;;;;;;;;;;;;;6.81;100.00;100558.81;5051642;28;19921;-75
2022/04/05 01:05:16;;;;;;;;;;;;;;;6.80;100.00;100557.09;5049518;28;19916;-73
2022/04/05 01:07:43;;;;;;;;;;;;;;;6.80;100.00;100563.16;5051555;28;19921;-75
2022/04/05 01:10:10;;;;;;;;;;;;;;;6.72;100.00;100559.13;5049172;28;19948;-74
2022/04/05 01:12:36;;;;;;;;;;;;;;;6.72;100.00;100559.97;5049987;28;19927;-74
2022/04/05 01:15:01;;;;;;;;;;;;;;;6.77;100.00;100550.22;5047173;28;19939;-73
2022/04/05 01:17:26;;;;;;;;;;;;;;;6.73;100.00;100555.59;5051095;28;20487;-73
2022/04/05 01:19:52;;;;;;;;;;;;;;;6.73;100.00;100556.44;5049316;28;20676;-74
2022/04/05 01:22:17;;;;;;;;;;;;;;;6.77;100.00;100552.84;5047822;28;19931;-74
2022/04/05 01:24:43;;;;;;;;;;;;;;;6.77;100.00;100568.50;5050814;28;19936;-73
2022/04/05 01:27:08;;;;;;;;;;;;;;;6.81;100.00;100562.25;5048340;28;20694;-75
2022/04/05 01:29:34;;;;;;;;;;;;;;;6.86;100.00;100564.69;5052022;28;19952;-74
2022/04/05 01:32:02;;;;;;;;;;;;;;;6.81;100.00;100570.09;5050858;28;19928;-75
2022/04/05 01:34:28;;;;;;;;;;;;;;;6.81;100.00;100569.25;5035368;28;19924;-73
2022/04/05 01:36:55;;;;;;;;;;;;;;;6.81;100.00;100558.81;5051368;28;20348;-74
2022/04/05 01:39:22;;;;;;;;;;;;;;;6.76;100.00;100564.19;5048928;28;19924;-74
2022/04/05 01:41:52;;;;;;;;;;;;;;;6.70;100.00;100553.09;5051855;28;19917;-74
2022/04/05 01:44:17;;;;;;;;;;;;;;;6.71;100.00;100552.19;5048898;28;20024;-74
2022/04/05 01:46:42;;;;;;;;;;;;;;;6.71;100.00;100555.66;5064509;28;20289;-74
2022/04/05 01:49:09;;;;;;;;;;;;;;;6.70;100.00;100540.06;5048244;28;19921;-74
2022/04/05 01:51:35;;;;;;;;;;;;;;;6.67;100.00;100545.38;5050166;28;20297;-75
2022/04/05 01:54:05;;;;;;;;;;;;;;;6.70;100.00;100540.06;5047006;28;19929;-73
2022/04/05 01:56:30;;;;;;;;;;;;;;;6.67;100.00;100548.81;5045673;28;19921;-74
2022/04/05 01:58:55;;;;;;;;;;;;;;;6.70;100.00;100547.88;5049228;28;19921;-73
2022/04/05 02:01:21;;;;;;;;;;;;;;;6.73;100.00;100553.84;5047996;28;19921;-74
2022/04/05 02:03:46;;;;;;;;;;;;;;;6.77;100.00;100554.59;5049684;28;19925;-74
2022/04/05 02:06:11;;;;;;;;;;;;;;;6.78;100.00;100554.50;5048514;28;20445;-75
2022/04/05 02:08:36;;;;;;;;;;;;;;;6.80;100.00;100547.50;5048744;28;19921;-74
2022/04/05 02:11:02;;;;;;;;;;;;;;;6.78;100.00;100551.06;5048327;28;19960;-74
2022/04/05 02:13:27;;;;;;;;;;;;;;;6.75;100.00;100556.38;5081259;28;19921;-73
2022/04/05 02:15:52;;;;;;;;;;;;;;;6.81;100.00;100553.56;5081034;28;19952;-74
2022/04/05 02:18:17;;;;;;;;;;;;;;;6.79;100.00;100556.22;5047908;28;20176;-74
2022/04/05 02:20:43;;;;;;;;;;;;;;;6.76;100.00;100551.13;5080034;28;19971;-74
2022/04/05 02:23:08;;;;;;;;;;;;;;;6.71;100.00;100552.19;5045950;28;19920;-75
2022/04/05 02:25:33;;;;;;;;;;;;;;;6.74;100.00;100547.72;5051427;28;19921;-74
2022/04/05 02:27:59;;;;;;;;;;;;;;;6.69;100.00;100554.84;5048064;28;19921;-74
2022/04/05 02:30:24;;;;;;;;;;;;;;;6.73;100.00;100553.84;5048258;28;19921;-74
2022/04/05 02:32:49;;;;;;;;;;;;;;;6.74;100.00;100557.28;5049481;28;19948;-74
2022/04/05 02:35:14;;;;;;;;;;;;;;;6.70;100.00;100550.50;5048072;28;20324;-74
2022/04/05 02:37:40;;;;;;;;;;;;;;;6.68;100.00;100550.53;5048542;28;19917;-73
2022/04/05 02:40:05;;;;;;;;;;;;;;;6.69;100.00;100543.56;5047860;28;19916;-74
2022/04/05 02:42:31;;;;;;;;;;;;;;;6.68;100.00;100547.91;5080707;28;20415;-75
2022/04/05 02:44:56;;;;;;;;;;;;;;;6.69;100.00;100546.19;5049097;28;19958;-75
2022/04/05 02:47:22;;;;;;;;;;;;;;;6.68;100.00;100558.34;5047100;28;19989;-74
2022/04/05 02:49:47;;;;;;;;;;;;;;;6.67;100.00;100546.22;5050855;28;19928;-75
2022/04/05 02:52:15;;;;;;;;;;;;;;;6.67;100.00;100546.22;5047404;28;19935;-74
2022/04/05 02:54:41;;;;;;;;;;;;;;;6.65;100.00;100548.06;5050994;28;20012;-74
2022/04/05 02:57:06;;;;;;;;;;;;;;;6.65;100.00;100555.88;5047594;28;20015;-74
2022/04/05 02:59:31;;;;;;;;;;;;;;;6.63;100.00;100549.84;5048534;28;19917;-74
2022/04/05 03:01:57;;;;;;;;;;;;;;;6.65;100.00;100553.28;5048060;28;19921;-74
2022/04/05 03:04:22;;;;;;;;;;;;;;;6.64;100.00;100552.41;5047222;28;20562;-74
2022/04/05 03:06:47;;;;;;;;;;;;;;;6.62;100.00;100546.38;5047987;28;20309;-74
2022/04/05 03:09:12;;;;;;;;;;;;;;;6.64;100.00;100555.00;5046527;28;19929;-74
2022/04/05 03:11:38;;;;;;;;;;;;;;;6.67;100.00;100553.19;5047236;28;19974;-75
2022/04/05 03:14:03;;;;;;;;;;;;;;;6.67;100.00;100561.03;5046292;28;20910;-75
2022/04/05 03:16:28;;;;;;;;;;;;;;;6.66;100.00;100547.16;5080890;28;19977;-75
2022/04/05 03:18:53;;;;;;;;;;;;;;;6.65;100.00;100551.50;5047341;28;20408;-75
2022/04/05 03:21:19;;;;;;;;;;;;;;;6.65;100.00;100548.88;5045838;28;19963;-75
2022/04/05 03:23:44;;;;;;;;;;;;;;;6.66;100.00;100549.75;5049303;28;19921;-75
2022/04/05 03:26:10;;;;;;;;;;;;;;;6.65;100.00;100548.06;5048406;28;19927;-75
2022/04/05 03:28:35;;;;;;;;;;;;;;;6.64;100.00;100547.19;5048416;28;19921;-75
2022/04/05 03:31:00;;;;;;;;;;;;;;;6.66;100.00;100549.75;5046227;28;20004;-75
2022/04/05 03:33:25;;;;;;;;;;;;;;;6.66;100.00;100549.75;5059835;28;19916;-75
2022/04/05 03:35:54;;;;;;;;;;;;;;;6.67;100.00;100547.97;5047821;28;19920;-73
2022/04/05 03:38:19;;;;;;;;;;;;;;;6.68;100.00;100542.69;5044077;28;20036;-74
2022/04/05 03:40:46;;;;;;;;;;;;;;;6.68;100.00;100536.63;5046582;28;20477;-74
2022/04/05 03:43:12;;;;;;;;;;;;;;;6.65;100.00;100541.06;5046565;28;20299;-75
2022/04/05 03:45:38;;;;;;;;;;;;;;;6.65;100.00;100538.44;5048015;28;20007;-74
2022/04/05 03:48:03;;;;;;;;;;;;;;;6.64;100.00;100528.06;5047286;28;20012;-74
2022/04/05 03:50:29;;;;;;;;;;;;;;;6.68;100.00;100523.59;5045549;28;19924;-74
2022/04/05 03:52:57;;;;;;;;;;;;;;;6.67;100.00;100525.31;5048256;28;19971;-75
2022/04/05 03:55:22;;;;;;;;;;;;;;;6.68;100.00;100532.25;5047022;28;19916;-74
2022/04/05 03:57:47;;;;;;;;;;;;;;;6.70;100.00;100519.16;5047433;28;19974;-75
2022/04/05 04:00:13;;;;;;;;;;;;;;;6.65;100.00;100516.72;5047406;28;19916;-74
2022/04/05 04:02:38;;;;;;;;;;;;;;;6.68;100.00;100526.19;5049093;28;20027;-74
2022/04/05 04:05:04;;;;;;;;;;;;;;;6.69;100.00;100518.31;5048200;28;19967;-75
2022/04/05 04:07:29;;;;;;;;;;;;;;;6.68;100.00;100513.97;5046008;28;20723;-75
2022/04/05 04:09:54;;;;;;;;;;;;;;;6.68;100.00;100511.38;5047267;28;19979;-75
2022/04/05 04:12:19;;;;;;;;;;;;;;;6.72;100.00;100512.13;5046712;28;20109;-74
2022/04/05 04:14:45;;;;;;;;;;;;;;;6.74;100.00;100512.91;5047634;28;19917;-76
2022/04/05 04:17:10;;;;;;;;;;;;;;;6.74;100.00;100518.13;5045024;28;19987;-75
2022/04/05 04:19:35;;;;;;;;;;;;;;;6.72;100.00;100517.34;5050322;28;19917;-75
2022/04/05 04:22:01;;;;;;;;;;;;;;;6.72;100.00;100504.31;5047141;28;20055;-74
2022/04/05 04:24:26;;;;;;;;;;;;;;;6.76;100.00;100508.50;5047147;28;19932;-74
2022/04/05 04:26:52;;;;;;;;;;;;;;;6.77;100.00;100510.19;5079199;28;20370;-75
2022/04/05 04:29:17;;;;;;;;;;;;;;;6.77;100.00;100507.59;5045565;28;19921;-74
2022/04/05 04:31:42;;;;;;;;;;;;;;;6.76;100.00;100509.34;5044894;28;19920;-75
2022/04/05 04:34:08;;;;;;;;;;;;;;;6.76;100.00;100505.88;5044237;28;19924;-74
2022/04/05 04:36:33;;;;;;;;;;;;;;;6.76;100.00;100509.34;5045547;28;19924;-75
2022/04/05 04:38:59;;;;;;;;;;;;;;;6.77;100.00;100504.97;5047319;28;20382;-75
2022/04/05 04:41:24;;;;;;;;;;;;;;;6.77;100.00;100507.59;5045660;28;19921;-75
2022/04/05 04:43:50;;;;;;;;;;;;;;;6.80;100.00;100503.09;5047229;28;19940;-75
2022/04/05 04:46:15;;;;;;;;;;;;;;;6.79;100.00;100511.00;5046530;28;20396;-76
2022/04/05 04:48:41;;;;;;;;;;;;;;;6.80;100.00;100500.47;5047912;28;19940;-74
2022/04/05 04:51:06;;;;;;;;;;;;;;;6.85;100.00;100504.69;5047693;28;19920;-74
2022/04/05 04:53:31;;;;;;;;;;;;;;;6.81;100.00;100503.97;5030187;28;20378;-76
2022/04/05 04:55:57;;;;;;;;;;;;;;;6.81;100.00;100501.34;5079689;28;19917;-75
2022/04/05 04:58:23;;;;;;;;;;;;;;;6.86;100.00;100498.56;5046716;28;19921;-75
2022/04/05 05:00:48;;;;;;;;;;;;;;;6.89;100.00;100503.69;5048243;28;20266;-76
2022/04/05 05:03:18;;;;;;;;;;;;;;;6.88;100.00;100500.22;5046311;28;19923;-75
2022/04/05 05:05:43;;;;;;;;;;;;;;;6.90;100.00;100495.78;5047990;28;19925;-76
2022/04/05 05:08:08;;;;;;;;;;;;;;;6.91;100.00;100494.88;5046483;28;19924;-75
2022/04/05 05:10:34;;;;;;;;;;;;;;;7.00;100.00;100487.59;5047600;28;19917;-75
2022/04/05 05:12:59;;;;;;;;;;;;;;;7.03;100.00;100492.72;5047462;28;20376;-74
2022/04/05 05:15:25;;;;;;;;;;;;;;;7.08;100.00;100490.78;5046593;28;19924;-76
2022/04/05 05:17:50;;;;;;;;;;;;;;;7.08;100.00;100489.03;5049284;28;20824;-75
2022/04/05 05:20:16;;;;;;;;;;;;;;;7.14;100.00;100493.16;5045959;28;19963;-75
2022/04/05 05:22:42;;;;;;;;;;;;;;;7.17;100.00;100490.41;5049378;28;19920;-75
2022/04/05 05:25:09;;;;;;;;;;;;;;;7.24;100.00;100494.50;5048167;28;19967;-74
2022/04/05 05:27:34;;;;;;;;;;;;;;;7.27;100.00;100486.56;5028522;28;20020;-75
2022/04/05 05:30:00;;;;;;;;;;;;;;;7.38;100.00;100500.97;5032093;28;20019;-74
2022/04/05 05:32:25;;;;;;;;;;;;;;;7.37;100.00;100500.09;5045526;28;20293;-74
2022/04/05 05:34:51;;;;;;;;;;;;;;;7.40;100.00;100504.34;5048632;28;19967;-75
2022/04/05 05:37:16;;;;;;;;;;;;;;;7.50;100.00;100497.84;5046158;28;20346;-74
2022/04/05 05:39:41;;;;;;;;;;;;;;;7.52;100.00;100496.03;5079211;28;19970;-74
2022/04/05 05:42:07;;;;;;;;;;;;;;;7.51;100.00;100490.88;5046824;28;19917;-74
2022/04/05 05:44:33;;;;;;;;;;;;;;;7.56;100.00;100495.00;5047696;28;20374;-75
2022/04/05 05:46:58;;;;;;;;;;;;;;;7.59;100.00;100499.25;5072328;28;19986;-75
2022/04/05 05:49:24;;;;;;;;;;;;;;;7.62;100.00;100500.88;5051058;28;20293;-74
2022/04/05 05:51:49;;;;;;;;;;;;;;;7.65;100.00;100491.19;5048870;28;19924;-74
2022/04/05 05:54:15;;;;;;;;;;;;;;;7.69;100.00;100495.34;5081647;28;19917;-74
2022/04/05 05:56:40;;;;;;;;;;;;;;;7.68;100.00;100500.66;5051964;28;19924;-75
2022/04/05 05:59:05;;;;;;;;;;;;;;;7.72;100.00;100495.25;5049074;28;20000;-74
2022/04/05 06:01:30;;;;;;;;;;;;;;;7.78;100.00;100498.50;5047734;28;19967;-74
2022/04/05 06:03:56;;;;;;;;;;;;;;;7.79;100.00;100505.44;5048104;28;19939;-75
2022/04/05 06:06:21;;;;;;;;;;;;;;;7.82;100.00;100506.19;5047145;28;19963;-75
2022/04/05 06:08:47;;;;;;;;;;;;;;;7.86;100.00;100501.69;5048889;28;19978;-75
2022/04/05 06:11:13;;;;;;;;;;;;;;;7.91;100.00;100501.50;5047102;28;19963;-75
2022/04/05 06:13:38;;;;;;;;;;;;;;;7.97;100.00;100509.94;5049009;28;19925;-76
2022/04/05 06:16:04;;;;;;;;;;;;;;;7.95;100.00;100510.91;5046863;28;19928;-75
2022/04/05 06:18:29;;;;;;;;;;;;;;;7.94;100.00;100515.28;5047703;28;19916;-77
2022/04/05 06:20:54;;;;;;;;;;;;;;;8.07;100.00;100518.25;5046417;28;19931;-77
2022/04/05 06:23:19;;;;;;;;;;;;;;;8.09;100.00;100512.97;5080812;28;19936;-77
2022/04/05 06:25:45;;;;;;;;;;;;;;;8.16;100.00;100525.69;5050380;28;19948;-77
2022/04/05 06:28:10;;;;;;;;;;;;;;;8.14;100.00;100522.31;5048409;28;19921;-77
2022/04/05 06:30:37;;;;;;;;;;;;;;;8.12;100.00;100532.00;5048281;28;19960;-77
2022/04/05 06:33:06;;;;;;;;;;;;;;;8.17;100.00;100527.41;5047605;28;19927;-77
2022/04/05 06:35:31;;;;;;;;;;;;;;;8.16;100.00;100530.94;5047273;28;19921;-77
2022/04/05 06:37:57;;;;;;;;;;;;;;;8.19;100.00;100530.81;5047309;28;19933;-76
2022/04/05 06:40:22;;;;;;;;;;;;;;;8.23;100.00;100521.06;5046088;28;19967;-75
2022/04/05 06:42:47;;;;;;;;;;;;;;;8.28;100.00;100529.59;5044169;28;19929;-76
2022/04/05 06:45:14;;;;;;;;;;;;;;;8.34;100.00;100528.47;5045861;28;19928;-75
2022/04/05 06:47:39;;;;;;;;;;;;;;;8.37;100.00;100533.59;5048559;28;19935;-74
2022/04/05 06:50:07;;;;;;;;;;;;;;;8.39;100.00;100534.34;5049047;28;19929;-76
2022/04/05 06:52:32;;;;;;;;;;;;;;;8.36;100.00;100543.19;5045783;28;20349;-76
2022/04/05 06:54:57;;;;;;;;;;;;;;;8.40;100.00;100541.28;5061897;28;19923;-76
2022/04/05 06:57:22;;;;;;;;;;;;;;;8.46;100.00;100540.19;5046843;28;19948;-75
2022/04/05 06:59:48;;;;;;;;;;;;;;;8.47;100.00;100534.03;5048592;28;19921;-76
2022/04/05 07:02:14;;;;;;;;;;;;;;;8.58;100.00;100537.06;5047178;28;21399;-77
2022/04/05 07:04:40;;;;;;;;;;;;;;;8.50;100.00;100542.63;5048271;28;20011;-75
2022/04/05 07:07:05;;;;;;;;;;;;;;;8.50;100.00;100540.00;5045894;28;20019;-74
2022/04/05 07:09:30;;;;;;;;;;;;;;;8.51;100.00;100536.47;5046379;28;19947;-77
2022/04/05 07:11:55;;;;;;;;;;;;;;;8.55;100.00;100547.66;5078313;28;20004;-75
2022/04/05 07:14:21;;;;;;;;;;;;;;;8.57;100.00;100543.22;5044803;28;19921;-75
2022/04/05 07:16:46;;;;;;;;;;;;;;;8.55;100.00;100545.03;5047904;28;19917;-75
2022/04/05 07:19:11;;;;;;;;;;;;;;;8.55;100.00;100544.22;5045767;28;19963;-75
2022/04/05 07:21:37;;;;;;;;;;;;;;;8.54;100.00;100550.34;5045505;28;19928;-76
2022/04/05 07:24:02;;;;;;;;;;;;;;;8.55;100.00;100547.66;5044213;28;19974;-75
2022/04/05 07:26:27;;;;;;;;;;;;;;;8.53;100.00;100546.03;5045840;28;20537;-77
2022/04/05 07:28:53;;;;;;;;;;;;;;;8.52;100.00;100545.19;5047951;28;20019;-75
2022/04/05 07:31:18;;;;;;;;;;;;;;;8.58;100.00;100546.69;5044953;28;19978;-75
2022/04/05 07:33:43;;;;;;;;;;;;;;;8.64;100.00;100539.44;5045317;28;19920;-75
2022/04/05 07:36:08;;;;;;;;;;;;;;;8.66;100.00;100540.19;5045112;28;19917;-77
2022/04/05 07:38:34;;;;;;;;;;;;;;;8.74;100.00;100550.34;5059787;28;19925;-75
2022/04/05 07:40:59;;;;;;;;;;;;;;;8.84;100.00;100537.69;5046033;28;20401;-75
2022/04/05 07:43:25;;;;;;;;;;;;;;;8.94;100.00;100544.22;5043978;28;19917;-76
2022/04/05 07:45:51;;;;;;;;;;;;;;;8.94;100.00;100543.34;5048470;28;19921;-77
2022/04/05 07:48:17;;;;;;;;;;;;;;;9.03;100.00;100553.44;5044412;28;19917;-76
2022/04/05 07:50:42;;;;;;;;;;;;;;;9.11;100.00;100535.59;5047234;28;19959;-76
2022/04/05 07:53:07;;;;;;;;;;;;;;;9.26;100.00;100541.91;5046256;28;20279;-76
2022/04/05 07:55:33;;;;;;;;;;;;;;;9.63;100.00;100548.97;5046764;28;20287;-75
2022/04/05 07:57:58;;;;;;;;;;;;;;;9.49;100.00;100539.13;5046210;28;20388;-76
2022/04/05 08:00:24;;;;;;;;;;;;;;;9.36;100.00;100542.34;5045891;28;20225;-76
2022/04/05 08:02:50;;;;;;;;;;;;;;;9.42;100.00;100541.22;5046204;28;19923;-76
2022/04/05 08:05:16;;;;;;;;;;;;;;;9.47;100.00;100547.06;5046089;28;20367;-75
2022/04/05 08:07:41;;;;;;;;;;;;;;;9.55;100.00;100544.09;5046011;28;19943;-75
2022/04/05 08:10:07;;;;;;;;;;;;;;;9.67;100.00;100548.75;5046826;28;19928;-76
2022/04/05 08:12:38;;;;;;;;;;;;;;;9.66;100.00;100547.06;5046094;28;21388;-76
2022/04/05 08:15:03;;;;;;;;;;;;;;;9.70;100.00;100543.34;5046497;28;19928;-76
2022/04/05 08:17:28;;;;;;;;;;;;;;;9.70;100.00;100556.47;5045716;28;20332;-76
2022/04/05 08:19:54;;;;;;;;;;;;;;;9.89;100.00;100555.59;5046218;28;19966;-76
2022/04/05 08:22:19;;;;;;;;;;;;;;;9.74;100.00;100551.94;5044399;28;19932;-76
2022/04/05 08:24:44;;;;;;;;;;;;;;;9.79;100.00;100547.31;5045944;28;20297;-75
2022/04/05 08:27:10;;;;;;;;;;;;;;;9.79;100.00;100549.94;5045233;28;19920;-76
2022/04/05 08:29:40;;;;;;;;;;;;;;;9.67;100.00;100556.63;5044797;28;19921;-77
2022/04/05 08:32:05;;;;;;;;;;;;;;;9.42;100.00;100563.00;5045368;28;19921;-77
2022/04/05 08:34:31;;;;;;;;;;;;;;;9.46;100.00;100568.13;5046097;28;19978;-77
2022/04/05 08:36:57;;;;;;;;;;;;;;;9.35;100.00;100561.63;5061642;28;20259;-77
2022/04/05 08:39:22;;;;;;;;;;;;;;;9.43;100.00;100564.72;5045183;28;19920;-76
2022/04/05 08:41:48;;;;;;;;;;;;;;;9.41;100.00;100560.47;5046743;28;19924;-76
2022/04/05 08:44:16;;;;;;;;;;;;;;;9.45;100.00;100562.00;5046163;28;19959;-76
2022/04/05 08:46:41;;;;;;;;;;;;;;;9.49;100.00;100571.44;5045144;28;20376;-76
2022/04/05 08:49:07;;;;;;;;;;;;;;;9.56;100.00;100564.16;5046116;28;19921;-76
2022/04/05 08:51:33;;;;;;;;;;;;;;;9.60;100.00;100557.81;5045628;28;19970;-75
2022/04/05 08:53:58;;;;;;;;;;;;;;;9.59;100.00;100564.84;5046856;28;19929;-76
2022/04/05 08:56:26;;;;;;;;;;;;;;;9.63;100.00;100572.59;5077047;28;19940;-76
2022/04/05 08:58:52;;;;;;;;;;;;;;;9.57;100.00;100561.44;5047423;28;19928;-75
2022/04/05 09:01:17;;;;;;;;;;;;;;;9.58;100.00;100564.94;5045726;28;19921;-76
2022/04/05 09:03:42;;;;;;;;;;;;;;;9.51;100.00;100559.13;5045533;28;19921;-75
2022/04/05 09:06:23;;;;;;;;;;;;;;;9.63;100.00;100562.94;5045892;28;19936;-77
2022/04/05 09:08:48;;;;;;;;;;;;;;;9.78;100.00;100561.34;5035575;28;19932;-76
2022/04/05 09:11:14;;;;;;;;;;;;;;;9.81;100.00;100569.06;5045937;28;20086;-76
2022/04/05 09:13:40;;;;;;;;;;;;;;;10.01;100.00;100567.25;5045733;28;20266;-74
2022/04/05 09:16:05;;;;;;;;;;;;;;;9.90;100.00;100567.78;5046003;28;19917;-74
2022/04/05 09:18:32;;;;;;;;;;;;;;;9.82;100.00;100577.78;5046217;28;19928;-75
2022/04/05 09:20:57;;;;;;;;;;;;;;;9.99;100.00;100579.59;5050895;28;19931;-74
2022/04/05 09:23:23;;;;;;;;;;;;;;;10.03;100.00;100568.03;5049443;28;19924;-75
2022/04/05 09:25:58;;;;;;;;;;;;;;;10.19;100.00;100563.75;5049705;28;20050;-75
2022/04/05 09:28:32;;;;;;;;;;;;;;;10.22;100.00;100557.47;5049552;28;19920;-74
2022/04/05 09:30:58;;;;;;;;;;;;;;;10.10;100.00;100558.91;5041320;28;19916;-74
2022/04/05 09:33:24;;;;;;;;;;;;;;;10.14;100.00;100560.47;5045643;28;19917;-75
2022/04/05 09:35:53;;;;;;;;;;;;;;;10.19;100.00;100565.50;5045139;28;20298;-76
2022/04/05 09:38:18;;;;;;;;;;;;;;;10.43;100.00;100566.06;5048118;28;19924;-74
2022/04/05 09:40:44;;;;;;;;;;;;;;;10.58;100.00;100560.97;5048765;28;20275;-74
2022/04/05 09:43:12;;;;;;;;;;;;;;;10.68;100.00;100562.19;5049465;28;19917;-74
2022/04/05 09:45:53;;;;;;;;;;;;;;;10.66;100.00;100564.03;5049173;28;19929;-74
2022/04/05 09:48:21;;;;;;;;;;;;;;;10.84;99.72;100570.13;5047393;28;19921;-74
2022/04/05 09:51:02;;;;;;;;;;;;;;;10.78;99.14;100565.19;5047811;28;19921;-73
2022/04/05 09:53:42;;;;;;;;;;;;;;;10.69;99.54;100570.94;5039913;28;19925;-73
2022/04/05 09:56:09;;;;;;;;;;;;;;;10.81;98.66;100565.88;5045406;28;19929;-73
2022/04/05 09:58:35;;;;;;;;;;;;;;;10.67;99.50;100565.75;5049792;28;19916;-74
2022/04/05 10:01:06;;;;;;;;;;;;;;;10.66;99.65;100569.28;5049354;28;19928;-74
2022/04/05 10:03:31;;;;;;;;;;;;;;;10.68;98.93;100572.69;5047946;28;20007;-75
2022/04/05 10:05:57;;;;;;;;;;;;;;;10.40;99.37;100578.50;5048746;28;20007;-74
2022/04/05 10:08:22;;;;;;;;;;;;;;;10.30;100.00;100575.47;5046748;28;19921;-74
2022/04/05 10:10:48;;;;;;;;;;;;;;;10.21;100.00;100580.25;5049618;28;19917;-74
2022/04/05 10:13:13;;;;;;;;;;;;;;;10.20;100.00;100590.84;5049710;28;19920;-75
2022/04/05 10:15:39;;;;;;;;;;;;;;;10.14;100.00;100591.16;5050138;28;19916;-75
2022/04/05 10:18:06;;;;;;;;;;;;;;;10.38;100.00;100580.34;5047893;28;20389;-75
2022/04/05 10:20:33;;;;;;;;;;;;;;;10.77;99.74;100581.91;5050205;28;19929;-76
2022/04/05 10:23:01;;;;;;;;;;;;;;;11.40;96.24;100560.13;5047919;28;19925;-76
2022/04/05 10:25:28;;;;;;;;;;;;;;;11.78;94.16;100558.06;5048975;28;19920;-75
2022/04/05 10:27:53;;;;;;;;;;;;;;;11.75;92.56;100551.22;5046479;28;19955;-74
2022/04/05 10:30:24;;;;;;;;;;;;;;;11.59;93.67;100559.94;5048222;28;19948;-77
2022/04/05 10:33:05;;;;;;;;;;;;;;;11.73;93.59;100564.47;5049229;28;20022;-75
2022/04/05 10:35:31;;;;;;;;;;;;;;;11.62;93.29;100565.97;5032776;28;19920;-75
2022/04/05 10:38:12;;;;;;;;;;;;;;;11.47;93.92;100565.88;5047809;28;20020;-75
2022/04/05 10:40:37;;;;;;;;;;;;;;;11.32;95.13;100572.84;5046879;28;19917;-74
2022/04/05 10:43:14;;;;;;;;;;;;;;;11.22;94.13;100577.78;5047160;28;21449;-74
2022/04/05 10:45:43;;;;;;;;;;;;;;;11.04;94.81;100576.09;5049658;28;20148;-75
2022/04/05 10:48:12;;;;;;;;;;;;;;;10.83;96.22;100589.44;5047100;28;19921;-76
2022/04/05 10:50:38;;;;;;;;;;;;;;;10.83;96.40;100571.91;5048106;28;20491;-75
2022/04/05 10:53:12;;;;;;;;;;;;;;;10.97;95.94;100578.19;5045447;28;19931;-74
2022/04/05 10:55:52;;;;;;;;;;;;;;;11.01;96.01;100579.75;5047716;28;19921;-75
2022/04/05 10:58:18;;;;;;;;;;;;;;;11.03;95.70;100577.03;5037513;28;21010;-75
2022/04/05 11:00:46;;;;;;;;;;;;;;;10.99;95.79;100573.72;5047370;28;19921;-74
2022/04/05 11:03:12;;;;;;;;;;;;;;;10.77;96.58;100574.84;5043452;28;19951;-76
2022/04/05 11:05:38;;;;;;;;;;;;;;;10.72;96.13;100579.50;5048689;28;20429;-75
2022/04/05 11:08:04;;;;;;;;;;;;;;;10.75;97.05;100583.75;5045849;28;20011;-76
2022/04/05 11:10:44;;;;;;;;;;;;;;;10.66;96.45;100578.03;5050659;28;20463;-74
2022/04/05 11:13:12;;;;;;;;;;;;;;;10.73;97.87;100586.47;5047499;28;19921;-74
2022/04/05 11:15:40;;;;;;;;;;;;;;;10.73;96.85;100580.34;5049960;28;19920;-75
2022/04/05 11:18:07;;;;;;;;;;;;;;;10.78;97.01;100580.97;5046353;28;19924;-75
2022/04/05 11:20:34;;;;;;;;;;;;;;;10.84;96.85;100583.25;5049755;28;19948;-75
2022/04/05 11:23:00;;;;;;;;;;;;;;;10.77;95.98;100571.38;5048184;28;19924;-74
2022/04/05 11:25:27;;;;;;;;;;;;;;;10.53;97.60;100582.22;5071994;28;19932;-74
2022/04/05 11:27:53;;;;;;;;;;;;;;;10.64;97.68;100576.41;5039294;28;19925;-74
2022/04/05 11:30:26;;;;;;;;;;;;;;;10.54;97.80;100585.69;5041303;28;19979;-74
2022/04/05 11:33:09;;;;;;;;;;;;;;;10.62;98.55;100578.28;5047241;28;19920;-74
2022/04/05 11:35:35;;;;;;;;;;;;;;;10.60;98.28;100586.22;5043256;28;20023;-75
2022/04/05 11:38:01;;;;;;;;;;;;;;;10.63;98.10;100591.34;5077835;28;19948;-75
2022/04/05 11:40:26;;;;;;;;;;;;;;;10.56;98.71;100592.56;5046662;28;19952;-73
2022/04/05 11:42:52;;;;;;;;;;;;;;;10.64;99.11;100577.28;5045192;28;20216;-74
2022/04/05 11:45:18;;;;;;;;;;;;;;;10.63;99.59;100593.97;5045999;28;19917;-74
2022/04/05 11:47:51;;;;;;;;;;;;;;;10.89;99.72;100577.75;5048841;28;19923;-73
2022/04/05 11:50:18;;;;;;;;;;;;;;;10.95;99.26;100585.34;5044313;28;20392;-75
2022/04/05 11:52:43;;;;;;;;;;;;;;;10.84;100.00;100591.16;5048727;28;19924;-74
2022/04/05 11:57:57;;;;;;;;;;;;;;;10.83;100.00;100587.69;5041986;28;20791;-75
2022/04/05 12:00:22;;;;;;;;;;;;;;;10.93;100.00;100588.03;5053646;28;19928;-74
2022/04/05 12:03:00;;;;;;;;;;;;;;;11.24;100.00;100581.16;5067062;28;20005;-76
2022/04/05 12:05:43;;;;;;;;;;;;;;;11.50;98.07;100573.63;5048729;28;19961;-76
2022/04/05 12:08:12;;;;;;;;;;;;;;;11.63;97.31;100571.16;5033769;28;19925;-77
2022/04/05 12:11:17;;;;;;;;;;;;;;;11.46;97.07;100569.47;5015813;28;20038;-75
2022/04/05 12:13:52;;;;;;;;;;;;;;;11.52;96.98;100563.03;5026890;28;19972;-74
2022/04/05 12:16:17;;;;;;;;;;;;;;;11.37;96.86;100572.59;5045857;28;19921;-74
2022/04/05 12:18:43;;;;;;;;;;;;;;;11.29;96.54;100565.97;5044695;28;19928;-74
2022/04/05 12:21:08;;;;;;;;;;;;;;;11.14;97.41;100570.28;5037262;28;19925;-75
2022/04/05 12:23:34;;;;;;;;;;;;;;;11.29;97.39;100568.59;5045568;28;19920;-75
2022/04/05 12:26:01;;;;;;;;;;;;;;;11.16;97.30;100579.88;5061001;28;19932;-75
2022/04/05 12:28:26;;;;;;;;;;;;;;;10.96;97.32;100573.91;5033203;28;19952;-75
2022/04/05 12:30:51;;;;;;;;;;;;;;;11.06;97.58;100577.75;5046334;28;20003;-75
2022/04/05 12:33:24;;;;;;;;;;;;;;;11.14;97.71;100569.41;5046629;28;19956;-76
2022/04/05 12:35:50;;;;;;;;;;;;;;;11.18;97.63;100570.97;5041985;28;19948;-77